This is the latest recevied weather packets stored in our database for station/object DF9PV-5. If no packets are shown the sender has not sent any weather packets the latest 10 day(s).
| Time | Temp. | Humidity | Pressure | Rain* | Wind** | Luminosity | Snow |
|---|---|---|---|---|---|---|---|
| 1777327241 | 11.67° C | 60% | 1018.8 hPa | 0 mm | - | - | - |
| 1777326326 | 12.22° C | 61% | 1018.8 hPa | 0 mm | - | - | - |
| 1777326022 | 12.22° C | 59% | 1018.8 hPa | 0 mm | - | - | - |
| 1777325126 | 12.78° C | 59% | 1018.9 hPa | 0 mm | - | - | - |
| 1777323334 | 13.33° C | 55% | 1018.9 hPa | 0 mm | - | - | - |
| 1777323030 | 13.33° C | 57% | 1019 hPa | 0 mm | - | - | - |
| 1777317920 | 17.22° C | 39% | 1019 hPa | 0 mm | - | - | - |
| 1777317638 | 17.22° C | 38% | 1019 hPa | 0 mm | - | - | - |
| 1777316758 | 17.22° C | 38% | 1019 hPa | 0 mm | - | - | - |
| 1777315850 | 16.67° C | 41% | 1018.9 hPa | 0 mm | - | - | - |
| 1777315222 | 17.22° C | 41% | 1018.8 hPa | 0 mm | - | - | - |
| 1777314336 | 17.78° C | 39% | 1018.6 hPa | 0 mm | - | - | - |
| 1777312822 | 18.33° C | 37% | 1018.7 hPa | 0 mm | - | - | - |
| 1777310726 | 19.44° C | 33% | 1018.8 hPa | 0 mm | - | - | - |
| 1777310422 | 20° C | 32% | 1018.7 hPa | 0 mm | - | - | - |
| 1777306822 | 21.11° C | 33% | 1019 hPa | 0 mm | - | - | - |
| 1777306548 | 21.11° C | 32% | 1019.1 hPa | 0 mm | - | - | - |
| 1777306253 | 21.67° C | 31% | 1019.1 hPa | 0 mm | - | - | - |
| 1777304767 | 21.67° C | 32% | 1019.3 hPa | 0 mm | - | - | - |
| 1777301728 | 20° C | 33% | 1019.7 hPa | 0 mm | - | - | - |
| 1777300555 | 20.56° C | 33% | 1019.9 hPa | 0 mm | - | - | - |
| 1777299655 | 20° C | 33% | 1020.2 hPa | 0 mm | - | - | - |
| 1777299335 | 19.44° C | 34% | 1020.2 hPa | 0 mm | - | - | - |
| 1777298720 | 20° C | 34% | 1020.4 hPa | 0 mm | - | - | - |
| 1777296631 | 20° C | 34% | 1020.7 hPa | 0 mm | - | - | - |
* Rain latest hour (hover to see other rain measurements)
** Current wind speed in m/s (hover to see current wind gust speed)